Airfield :
LOGIN :

Register | Disclaimer

   EN    FR    IT 

 










Legend :    VFR   Marginal VFR   IFR   Intensive IFR   Very Intensive IFR
Visi :
Ceiling :
>= 8 km
>= 3000ft
5 to 8 km
1000 to 3000 ft
1500m to 5 km
500 to 1000 ft
800 to 1500m
200 to 500 ft
< 800m
< 200 ft
Symbols :   Thunderstorms  Fog  Heavy snow  Heavy precipitations  Wind > 20 kt
SIGMETs :     Misc.  Thunderstorms  Icing  Turbulence  Mountain Waves  Volcanic Ashes






- Airport Elevation : 1521 ft
- IATA code : NCY


LFLP - Annecy

CURRENT METAR :
  • 040000Z AUTO 09003KT 9999 ///TCU 20/18 Q1020

EXPIRED METARs :
  • 031530Z AUTO 23007KT 200V260 CAVOK 31/16 Q1018 NOSIG
  • 032330Z AUTO VRB02KT 9999 ///CB 20/18 Q1019
  • 032300Z AUTO VRB03KT 9999 ///CB 20/18 Q1019
  • 032230Z AUTO VRB01KT 9999 ///CB 21/18 Q1019
  • 032200Z AUTO VRB03KT 9999 FEW012/// BKN120/// OVC140/// ///CB 21/18 Q1019
  • 032130Z AUTO VRB02KT 9999 FEW062/// BKN130/// BKN170/// ///CB 22/17 Q1019

TAF AMD TAF LFLP
Valid from the 03 at 17:00 until the 04 at 15:00 UTC


031705Z 0317/0415 25006KT CAVOK
TEMPO 0317/0401 FEW070CB
TEMPO 0401/0406 SHRA SCT070CB
TEMPO 0414/0415 TSRA SCT080CB



MET'MAP, your aeronautical weather chart ! - Copyright ORBIFLY December 2007 - Disclaimer

ORBIFLY MET'MAP TEAM :

Programming & Development : Alexandra Zaïnal
Original concept : Baudouin d'Aumeries
Technical & hardware support : Manuel Goepfert
Assistance : Marc-Olivier Méhu




SOURCES & CREDITS :

   NOAA